createdAt,value
2022-09-10T00:02:57.519Z,1.20
2022-09-10T00:06:59.178Z,1.13
2022-09-10T00:11:04.706Z,1.27
2022-09-10T00:15:09.723Z,1.03
2022-09-10T00:19:11.853Z,1.00
2022-09-10T00:23:13.783Z,1.30
2022-09-10T00:27:15.199Z,1.50
2022-09-10T00:31:18.535Z,1.20
2022-09-10T00:39:39.132Z,1.10
2022-09-10T00:43:50.441Z,1.20
2022-09-10T00:47:55.762Z,1.20
2022-09-10T00:51:57.811Z,1.20
2022-09-10T00:56:01.762Z,1.30
2022-09-10T01:00:06.613Z,0.90
2022-09-10T01:04:09.538Z,1.17
2022-09-10T01:08:13.086Z,1.27
2022-09-10T01:12:33.134Z,1.10
2022-09-10T01:16:46.866Z,1.10
2022-09-10T01:21:04.742Z,1.00
2022-09-10T01:25:15.190Z,1.10
2022-09-10T01:29:24.627Z,1.10
2022-09-10T01:33:34.401Z,1.13
2022-09-10T01:37:38.814Z,1.20
2022-09-10T01:41:40.446Z,1.10
2022-09-10T01:45:55.641Z,1.60
2022-09-10T01:50:18.691Z,0.97
2022-09-10T01:54:36.366Z,1.00
2022-09-10T01:58:40.470Z,1.33
2022-09-10T02:02:47.950Z,1.00
2022-09-10T02:06:51.174Z,0.90
2022-09-10T02:10:55.239Z,0.90
2022-09-10T02:14:57.670Z,0.97
2022-09-10T02:19:02.338Z,1.10
2022-09-10T02:23:06.285Z,1.00
2022-09-10T02:27:07.737Z,1.00
2022-09-10T02:31:09.799Z,0.90
2022-09-10T02:35:12.960Z,0.93
2022-09-10T02:39:14.393Z,1.00
2022-09-10T02:43:16.103Z,1.00
2022-09-10T02:47:17.506Z,1.13
2022-09-10T02:51:20.306Z,0.90
2022-09-10T02:55:21.874Z,1.00
2022-09-10T02:59:23.741Z,0.80
2022-09-10T03:03:25.134Z,0.93
2022-09-10T03:07:28.048Z,0.90
2022-09-10T03:11:29.470Z,1.00
2022-09-10T03:15:31.002Z,1.07
2022-09-10T03:19:32.618Z,1.07
2022-09-10T03:23:37.369Z,1.10
2022-09-10T03:27:39.606Z,1.20
2022-09-10T03:31:41.031Z,1.20
2022-09-10T03:35:42.606Z,1.37
2022-09-10T03:39:45.397Z,1.10
2022-09-10T03:43:46.963Z,1.20
2022-09-10T03:47:48.493Z,1.23
2022-09-10T03:51:51.007Z,1.13
2022-09-10T03:55:53.763Z,1.20
2022-09-10T03:59:55.137Z,1.10
2022-09-10T04:03:57.102Z,1.00
2022-09-10T04:07:59.175Z,1.50
2022-09-10T04:12:03.098Z,1.20
2022-09-10T04:16:04.671Z,1.20
2022-09-10T04:20:07.298Z,1.10
2022-09-10T04:24:11.598Z,1.10
2022-09-10T04:28:14.458Z,1.30
2022-09-10T04:32:15.998Z,1.00
2022-09-10T04:36:17.358Z,1.40
2022-09-10T04:40:18.743Z,1.57
2022-09-10T04:44:21.677Z,1.30
2022-09-10T04:48:24.163Z,1.30
2022-09-10T04:52:25.717Z,1.10
2022-09-10T04:56:28.213Z,1.37
2022-09-10T05:00:30.949Z,1.20
2022-09-10T05:04:32.658Z,1.20
2022-09-10T05:08:34.055Z,1.60
2022-09-10T05:12:35.633Z,1.63
2022-09-10T05:16:38.714Z,1.20
2022-09-10T05:20:42.901Z,1.10
2022-09-10T05:24:44.429Z,1.23
2022-09-10T05:28:45.818Z,1.20
2022-09-10T05:32:48.689Z,1.43
2022-09-10T05:36:50.065Z,1.20
2022-09-10T05:40:51.610Z,1.03
2022-09-10T05:44:53.190Z,1.40
2022-09-10T05:48:56.382Z,1.43
2022-09-10T05:52:57.759Z,1.43
2022-09-10T05:56:59.334Z,1.30
2022-09-10T06:01:00.885Z,1.00
2022-09-10T06:05:04.471Z,1.13
2022-09-10T06:09:06.102Z,1.17
2022-09-10T06:13:07.687Z,1.47
2022-09-10T06:17:09.081Z,1.33
2022-09-10T06:21:14.134Z,1.30
2022-09-10T06:25:15.646Z,0.97
2022-09-10T06:29:17.946Z,1.17
2022-09-10T06:33:21.797Z,1.13
2022-09-10T06:37:24.561Z,1.40
2022-09-10T06:41:26.298Z,1.10
2022-09-10T06:45:27.948Z,1.30
2022-09-10T06:49:29.342Z,1.30
2022-09-10T06:53:32.237Z,1.30
2022-09-10T06:57:33.628Z,1.40
2022-09-10T07:01:35.464Z,1.10
2022-09-10T07:05:36.846Z,1.53
2022-09-10T07:09:39.629Z,1.40
2022-09-10T07:13:42.262Z,1.37
2022-09-10T07:17:43.663Z,1.20
2022-09-10T07:21:45.234Z,1.27
2022-09-10T07:25:48.481Z,1.40
2022-09-10T07:29:50.058Z,1.23
2022-09-10T07:33:51.660Z,1.50
2022-09-10T07:37:53.046Z,1.13
2022-09-10T07:41:55.809Z,1.43
2022-09-10T07:46:00.026Z,1.33
2022-09-10T07:50:05.825Z,1.40
2022-09-10T07:54:07.546Z,1.77
2022-09-10T07:58:11.449Z,1.40
2022-09-10T08:02:14.545Z,1.40
2022-09-10T08:06:16.371Z,1.60
2022-09-10T08:10:17.989Z,1.20
2022-09-10T08:14:20.721Z,2.10
2022-09-10T08:18:22.329Z,1.30
2022-09-10T08:22:23.793Z,1.80
2022-09-10T08:26:27.709Z,2.10
2022-09-10T08:30:30.477Z,1.80
2022-09-10T08:34:31.847Z,1.87
2022-09-10T08:38:35.469Z,2.27
2022-09-10T08:42:41.316Z,2.00
2022-09-10T08:46:49.657Z,1.97
2022-09-10T08:50:57.305Z,1.90
2022-09-10T08:55:05.485Z,1.90
2022-09-10T08:59:18.596Z,2.30
2022-09-10T09:03:32.037Z,2.20
2022-09-10T09:07:36.969Z,2.27
2022-09-10T09:11:45.881Z,2.10
2022-09-10T09:15:52.770Z,2.20
2022-09-10T09:20:09.139Z,2.30
2022-09-10T09:24:20.533Z,2.50
2022-09-10T09:28:32.162Z,2.50
2022-09-10T09:32:36.633Z,2.60
2022-09-10T09:36:45.831Z,3.13
2022-09-10T09:40:49.633Z,3.00
2022-09-10T09:44:59.264Z,2.80
2022-09-10T09:49:02.238Z,3.20
2022-09-10T09:53:05.153Z,3.20
2022-09-10T09:57:15.470Z,3.30
2022-09-10T10:01:20.412Z,3.20
2022-09-10T10:05:24.446Z,2.73
2022-09-10T10:09:28.841Z,2.50
2022-09-10T10:13:37.810Z,2.43
2022-09-10T10:17:40.257Z,2.53
2022-09-10T10:21:41.698Z,2.50
2022-09-10T10:25:44.477Z,2.50
2022-09-10T10:29:55.257Z,2.07
2022-09-10T10:34:05.144Z,3.47
2022-09-10T10:38:29.713Z,2.03
2022-09-10T10:42:39.197Z,2.10
2022-09-10T10:46:47.174Z,2.00
2022-09-10T10:50:56.629Z,1.90
2022-09-10T10:55:10.426Z,2.00
2022-09-10T10:59:28.107Z,2.07
2022-09-10T11:03:36.377Z,2.00
2022-09-10T11:07:42.609Z,2.13
2022-09-10T11:11:54.734Z,2.10
2022-09-10T11:16:03.522Z,2.57
2022-09-10T11:20:30.246Z,2.27
2022-09-10T11:24:38.565Z,2.40
2022-09-10T11:28:47.280Z,2.30
2022-09-10T11:32:56.224Z,2.23
2022-09-10T11:37:04.373Z,2.40
2022-09-10T11:41:10.880Z,2.70
2022-09-10T11:45:20.185Z,2.07
2022-09-10T11:49:27.732Z,2.70
2022-09-10T11:53:29.505Z,2.70
2022-09-10T11:57:37.844Z,3.57
2022-09-10T12:02:14.260Z,3.77
2022-09-10T12:06:21.005Z,3.67
2022-09-10T12:10:31.671Z,3.63
2022-09-10T12:14:33.201Z,3.73
2022-09-10T12:18:42.863Z,4.13
2022-09-10T12:22:51.428Z,4.10
2022-09-10T12:26:54.593Z,4.07
2022-09-10T12:31:01.666Z,4.30
2022-09-10T12:35:41.565Z,3.50
2022-09-10T12:39:44.530Z,3.60
2022-09-10T12:43:55.005Z,4.07
2022-09-10T12:47:56.457Z,3.70
2022-09-10T12:51:59.761Z,4.57
2022-09-10T12:56:19.153Z,5.93
2022-09-10T13:00:22.668Z,6.20
2022-09-10T13:04:28.248Z,7.47
2022-09-10T13:08:34.039Z,7.60
2022-09-10T13:12:41.924Z,8.53
2022-09-10T13:16:43.673Z,8.97
2022-09-10T13:20:45.289Z,9.83
2022-09-10T13:25:00.872Z,9.27
2022-09-10T13:29:09.371Z,10.50
2022-09-10T13:33:12.097Z,10.10
2022-09-10T13:37:33.069Z,10.00
2022-09-10T13:41:57.948Z,11.20
2022-09-10T13:46:04.406Z,10.47
2022-09-10T13:50:13.415Z,10.20
2022-09-10T13:54:28.849Z,9.80
2022-09-10T13:58:34.948Z,8.57
2022-09-10T14:02:45.210Z,7.80
2022-09-10T14:06:46.663Z,8.10
2022-09-10T14:10:51.918Z,6.87
2022-09-10T14:14:57.213Z,6.40
2022-09-10T14:19:03.929Z,5.80
2022-09-10T14:23:07.868Z,5.40
2022-09-10T14:27:16.785Z,5.40
2022-09-10T14:31:22.270Z,4.63
2022-09-10T14:35:37.380Z,4.80
2022-09-10T14:39:44.082Z,4.53
2022-09-10T14:43:45.952Z,5.30
2022-09-10T14:47:51.990Z,4.53
2022-09-10T14:51:55.780Z,4.90
2022-09-10T14:55:57.400Z,5.20
2022-09-10T14:59:59.757Z,4.43
2022-09-10T15:04:01.476Z,4.43
2022-09-10T15:08:04.424Z,4.70
2022-09-10T15:12:09.088Z,5.20
2022-09-10T15:16:10.587Z,4.50
2022-09-10T15:20:13.917Z,4.13
2022-09-10T15:24:18.915Z,3.73
2022-09-10T15:28:20.453Z,3.73
2022-09-10T15:32:21.897Z,2.87
2022-09-10T15:36:23.444Z,3.30
2022-09-10T15:40:26.184Z,2.83
2022-09-10T15:44:27.568Z,2.37
2022-09-10T15:48:30.536Z,2.30
2022-09-10T15:52:31.921Z,2.17
2022-09-10T15:56:34.800Z,2.17
2022-09-10T16:00:36.204Z,2.10
2022-09-10T16:04:40.292Z,2.37
2022-09-10T16:08:48.064Z,2.30
2022-09-10T16:12:50.796Z,2.20
2022-09-10T16:16:52.356Z,1.77
2022-09-10T16:20:53.892Z,2.27
2022-09-10T16:24:55.445Z,2.00
2022-09-10T16:28:59.377Z,2.20
2022-09-10T16:33:00.788Z,2.47
2022-09-10T16:37:02.388Z,1.87
2022-09-10T16:41:05.881Z,2.47
2022-09-10T16:45:09.492Z,2.40
2022-09-10T16:49:12.100Z,2.50
2022-09-10T16:53:13.577Z,2.30
2022-09-10T16:57:15.130Z,2.33
2022-09-10T17:01:17.948Z,2.10
2022-09-10T17:05:20.084Z,2.10
2022-09-10T17:09:21.497Z,2.47
2022-09-10T17:13:23.037Z,2.33
2022-09-10T17:17:26.216Z,2.70
2022-09-10T17:21:29.301Z,2.67
2022-09-10T17:25:30.706Z,2.47
2022-09-10T17:29:32.186Z,2.60
2022-09-10T17:33:35.415Z,2.47
2022-09-10T17:37:37.264Z,2.43
2022-09-10T17:41:39.257Z,2.57
2022-09-10T17:45:40.625Z,2.67
2022-09-10T17:49:43.369Z,2.80
2022-09-10T17:53:44.990Z,3.70
2022-09-10T17:57:46.383Z,3.33
2022-09-10T18:01:47.830Z,3.43
2022-09-10T18:05:50.647Z,3.60
2022-09-10T18:09:52.034Z,3.60
2022-09-10T18:13:56.053Z,4.17
2022-09-10T18:17:57.827Z,4.20
2022-09-10T18:22:00.681Z,4.50
2022-09-10T18:26:10.990Z,4.40
2022-09-10T18:30:12.731Z,4.90
2022-09-10T18:34:22.666Z,4.50
2022-09-10T18:38:26.922Z,4.77
2022-09-10T18:42:28.305Z,5.17
2022-09-10T18:46:31.139Z,5.20
2022-09-10T18:50:32.548Z,4.90
2022-09-10T18:54:35.413Z,5.60
2022-09-10T18:58:37.553Z,6.63
2022-09-10T19:02:39.149Z,6.67
2022-09-10T19:06:42.124Z,7.93
2022-09-10T19:10:44.852Z,7.67
2022-09-10T19:14:46.428Z,8.10
2022-09-10T19:18:51.733Z,7.93
2022-09-10T19:22:53.276Z,8.53
2022-09-10T19:26:56.832Z,8.60
2022-09-10T19:31:00.190Z,8.87
2022-09-10T19:35:01.746Z,9.00
2022-09-10T19:39:05.626Z,10.63
2022-09-10T19:43:08.395Z,10.70
2022-09-10T19:47:09.947Z,11.97
2022-09-10T19:51:13.107Z,11.20
2022-09-10T19:55:14.711Z,10.53
2022-09-10T19:59:17.457Z,10.63
2022-09-10T20:03:18.896Z,10.13
2022-09-10T20:07:20.297Z,11.27
2022-09-10T20:11:24.144Z,9.97
2022-09-10T20:15:27.199Z,10.40
2022-09-10T20:19:28.580Z,10.60
2022-09-10T20:23:29.962Z,10.53
2022-09-10T20:27:32.879Z,10.03
2022-09-10T20:31:36.923Z,10.93
2022-09-10T20:35:41.686Z,10.67
2022-09-10T20:39:43.432Z,10.40
2022-09-10T20:43:48.615Z,10.47
2022-09-10T20:47:51.399Z,11.23
2022-09-10T20:51:53.731Z,10.37
2022-09-10T20:56:01.991Z,10.97
2022-09-10T21:00:04.630Z,9.63
2022-09-10T21:04:07.427Z,9.93
2022-09-10T21:08:08.794Z,9.57
2022-09-10T21:12:10.382Z,9.70
2022-09-10T21:16:13.729Z,9.73
2022-09-10T21:20:16.807Z,9.80
2022-09-10T21:24:20.132Z,9.97
2022-09-10T21:28:21.694Z,9.40
2022-09-10T21:32:23.104Z,8.80
2022-09-10T21:36:26.259Z,9.17
2022-09-10T21:40:27.622Z,9.37
2022-09-10T21:44:29.042Z,9.10
2022-09-10T21:48:30.999Z,9.23
2022-09-10T21:52:33.901Z,9.13
2022-09-10T21:56:35.468Z,9.23
2022-09-10T22:00:36.931Z,9.47
2022-09-10T22:04:38.463Z,8.60
2022-09-10T22:08:43.361Z,8.70
2022-09-10T22:12:44.874Z,8.70
2022-09-10T22:16:46.328Z,8.23
2022-09-10T22:20:47.738Z,8.77
2022-09-10T22:24:50.436Z,8.10
2022-09-10T22:28:53.271Z,8.40
2022-09-10T22:32:55.666Z,8.67
2022-09-10T22:36:57.050Z,8.80
2022-09-10T22:41:02.650Z,8.40
2022-09-10T22:45:05.020Z,8.60
2022-09-10T22:49:07.202Z,8.67
2022-09-10T22:53:08.747Z,8.57
2022-09-10T22:57:11.622Z,8.90
2022-09-10T23:01:16.374Z,8.20
2022-09-10T23:05:17.829Z,7.77
2022-09-10T23:09:19.226Z,8.03
2022-09-10T23:13:22.030Z,8.83
2022-09-10T23:17:23.579Z,8.43
2022-09-10T23:21:27.407Z,9.10
2022-09-10T23:25:28.859Z,10.17
2022-09-10T23:29:31.747Z,9.43
2022-09-10T23:33:33.211Z,9.33
2022-09-10T23:37:34.831Z,10.17
2022-09-10T23:41:36.262Z,10.90
2022-09-10T23:45:38.977Z,11.27
2022-09-10T23:49:40.530Z,10.07
2022-09-10T23:53:42.659Z,12.50
2022-09-10T23:57:44.395Z,11.40
